Time;durP1;ratioP1;P1;durP2;ratioP2;P2;SDS_P1;SDS_P2;PMS_P1;PMS_P2;Temp;Humidity;BMP_temperature;BMP_pressure;BME280_temperature;BME280_humidity;BME280_pressure;Samples;Min_cycle;Max_cycle;Signal;HPM_P1;HPM_P2
2023/03/27 00:02:10;;;;;;;1.55;1.17;;;4.70;99.90;;;;;;6246101;23;20619;-88
2023/03/27 00:04:58;;;;;;;3.85;1.40;;;4.70;99.90;;;;;;6248925;23;20028;-88
2023/03/27 00:08:00;;;;;;;1.60;1.50;;;4.70;99.90;;;;;;6224490;23;20028;-86
2023/03/27 00:10:47;;;;;;;3.78;1.85;;;4.70;99.90;;;;;;6245316;23;20052;-87
2023/03/27 00:13:45;;;;;;;2.10;1.90;;;4.70;99.90;;;;;;6245749;23;20094;-89
2023/03/27 00:16:37;;;;;;;2.90;1.65;;;4.80;99.90;;;;;;6246194;23;20024;-87
2023/03/27 00:19:25;;;;;;;3.63;1.35;;;4.80;99.90;;;;;;6247420;23;20117;-87
2023/03/27 00:22:12;;;;;;;1.48;1.38;;;4.80;99.90;;;;;;6248890;23;20020;-89
2023/03/27 00:25:01;;;;;;;1.73;1.45;;;4.70;99.90;;;;;;6247656;23;20023;-89
2023/03/27 00:27:49;;;;;;;2.05;1.00;;;4.70;99.90;;;;;;6248138;23;20311;-88
2023/03/27 00:30:37;;;;;;;1.08;1.08;;;4.60;99.90;;;;;;6247027;23;20020;-89
2023/03/27 00:33:25;;;;;;;1.17;1.08;;;4.60;99.90;;;;;;6248049;23;20028;-87
2023/03/27 00:36:14;;;;;;;1.35;1.15;;;4.50;99.90;;;;;;6245667;23;20019;-88
2023/03/27 00:39:01;;;;;;;1.00;1.00;;;4.50;99.90;;;;;;6226131;23;20154;-88
2023/03/27 00:41:49;;;;;;;2.65;1.20;;;4.50;99.90;;;;;;6246517;23;20027;-87
2023/03/27 00:44:42;;;;;;;1.02;1.02;;;4.50;99.90;;;;;;6246582;23;20051;-86
2023/03/27 00:47:33;;;;;;;2.38;1.27;;;4.50;99.90;;;;;;6226974;23;20027;-86
2023/03/27 00:50:24;;;;;;;2.50;2.30;;;4.50;99.90;;;;;;6246063;23;20044;-87
2023/03/27 00:53:23;;;;;;;3.08;2.78;;;4.50;99.90;;;;;;6225627;23;20357;-85
2023/03/27 00:56:16;;;;;;;2.88;2.45;;;4.50;99.90;;;;;;6245852;23;20024;-85
2023/03/27 00:59:15;;;;;;;4.25;3.53;;;4.40;99.90;;;;;;6246583;23;20020;-85
2023/03/27 01:02:03;;;;;;;4.45;3.85;;;4.40;99.90;;;;;;6225630;23;20451;-86
2023/03/27 01:04:54;;;;;;;4.88;3.70;;;4.40;99.90;;;;;;6247993;23;20028;-84
2023/03/27 01:07:43;;;;;;;5.47;4.22;;;4.40;99.90;;;;;;6245389;23;20035;-84
2023/03/27 01:10:55;;;;;;;6.75;4.95;;;4.40;99.90;;;;;;6230222;23;20044;-84
2023/03/27 01:13:45;;;;;;;6.25;5.40;;;4.40;99.90;;;;;;6246098;23;20024;-88
2023/03/27 01:17:01;;;;;;;7.57;5.78;;;4.30;99.90;;;;;;6224233;23;20028;-83
2023/03/27 01:19:59;;;;;;;10.73;5.63;;;4.30;99.90;;;;;;6225840;23;20024;-85
2023/03/27 01:23:32;;;;;;;7.53;5.55;;;4.30;99.90;;;;;;6247500;23;20024;-84
2023/03/27 01:27:00;;;;;;;6.78;6.07;;;4.30;99.90;;;;;;6231530;23;20089;-87
2023/03/27 01:30:03;;;;;;;8.45;6.20;;;4.30;99.90;;;;;;6225940;23;20030;-88
2023/03/27 01:33:27;;;;;;;5.03;3.80;;;4.30;99.90;;;;;;6226515;23;20024;-83
2023/03/27 01:36:37;;;;;;;4.75;3.88;;;4.20;99.90;;;;;;6249319;23;20098;-85
2023/03/27 01:40:06;;;;;;;4.07;3.67;;;4.20;99.90;;;;;;6255977;23;20028;-86
2023/03/27 01:43:04;;;;;;;4.90;4.30;;;4.10;99.90;;;;;;6252188;23;20422;-87
2023/03/27 01:46:00;;;;;;;5.70;4.90;;;4.10;99.90;;;;;;6251772;23;20028;-85
2023/03/27 01:49:09;;;;;;;6.68;4.88;;;4.10;99.90;;;;;;6250978;23;20028;-85
2023/03/27 01:52:11;;;;;;;5.93;4.93;;;4.10;99.90;;;;;;6246463;23;20024;-87
2023/03/27 01:55:03;;;;;;;6.57;5.07;;;4.00;99.90;;;;;;6244057;23;20035;-84
2023/03/27 01:57:59;;;;;;;6.47;5.13;;;4.00;99.90;;;;;;6245752;23;20542;-85
2023/03/27 02:00:51;;;;;;;7.88;5.93;;;3.90;99.90;;;;;;6246128;23;20032;-85
2023/03/27 02:03:45;;;;;;;11.45;7.07;;;3.90;99.90;;;;;;6225963;23;20039;-83
2023/03/27 02:06:39;;;;;;;13.43;6.80;;;3.90;99.90;;;;;;6243848;23;20024;-85
2023/03/27 02:09:36;;;;;;;14.68;8.05;;;3.70;99.90;;;;;;6225684;23;20328;-84
2023/03/27 02:12:37;;;;;;;26.05;10.02;;;3.60;99.90;;;;;;6246445;23;20094;-84
2023/03/27 02:15:34;;;;;;;26.65;13.57;;;3.40;99.90;;;;;;6243087;23;20028;-84
2023/03/27 02:18:39;;;;;;;33.00;15.43;;;3.30;99.90;;;;;;6225383;23;20082;-85
2023/03/27 02:21:26;;;;;;;35.70;16.73;;;3.30;99.90;;;;;;6225017;23;20066;-85
2023/03/27 02:24:17;;;;;;;40.45;16.02;;;3.20;99.90;;;;;;6245081;23;20071;-86
2023/03/27 02:27:43;;;;;;;31.58;16.02;;;3.10;99.90;;;;;;6246397;23;20033;-85
2023/03/27 02:31:08;;;;;;;40.03;17.52;;;3.10;99.90;;;;;;6224203;23;20296;-83
2023/03/27 02:34:31;;;;;;;37.58;16.75;;;3.10;99.90;;;;;;6246493;23;20135;-83
2023/03/27 02:37:24;;;;;;;39.53;17.40;;;3.10;99.90;;;;;;6223377;23;20024;-84
2023/03/27 02:40:25;;;;;;;45.50;18.48;;;3.10;99.90;;;;;;6246201;23;20434;-84
2023/03/27 02:43:21;;;;;;;35.90;17.85;;;3.10;99.90;;;;;;6246224;23;20364;-89
2023/03/27 02:46:11;;;;;;;47.75;19.33;;;3.10;99.90;;;;;;6247250;23;20402;-85
2023/03/27 02:49:08;;;;;;;45.45;19.55;;;3.00;99.90;;;;;;6245919;23;20024;-84
2023/03/27 02:52:02;;;;;;;44.88;19.50;;;3.00;99.90;;;;;;6226596;23;20151;-85
2023/03/27 02:55:05;;;;;;;40.58;19.65;;;2.80;99.90;;;;;;6245891;23;20019;-87
2023/03/27 02:57:58;;;;;;;46.03;17.98;;;2.80;99.90;;;;;;6246377;23;20019;-85
2023/03/27 03:00:47;;;;;;;35.13;17.63;;;2.80;99.90;;;;;;6244765;23;20027;-86
2023/03/27 03:03:44;;;;;;;40.33;17.00;;;2.80;99.90;;;;;;6225024;23;20028;-85
2023/03/27 03:06:31;;;;;;;34.53;16.45;;;2.70;99.90;;;;;;6247006;23;20082;-84
2023/03/27 03:09:18;;;;;;;35.85;16.58;;;2.60;99.90;;;;;;6244819;23;20337;-85
2023/03/27 03:12:06;;;;;;;31.08;15.27;;;2.60;99.90;;;;;;6245372;23;20304;-85
2023/03/27 03:14:56;;;;;;;32.15;14.60;;;2.50;99.90;;;;;;6246146;23;20020;-88
2023/03/27 03:17:44;;;;;;;37.35;14.60;;;2.40;99.90;;;;;;6250494;23;20027;-83
2023/03/27 03:20:33;;;;;;;37.03;13.70;;;2.20;99.90;;;;;;6207642;23;20028;-85
2023/03/27 03:23:23;;;;;;;27.17;11.02;;;2.10;99.90;;;;;;6250961;23;20107;-87
2023/03/27 03:26:11;;;;;;;29.30;10.93;;;2.00;99.90;;;;;;6249073;23;20030;-83
2023/03/27 03:28:59;;;;;;;33.55;9.93;;;1.90;99.90;;;;;;6247607;23;20312;-83
2023/03/27 03:31:52;;;;;;;29.23;8.48;;;1.90;99.90;;;;;;6229432;23;20043;-84
2023/03/27 03:34:45;;;;;;;16.30;5.53;;;1.80;99.90;;;;;;6256585;23;20035;-85
2023/03/27 03:37:37;;;;;;;24.17;7.18;;;1.70;99.90;;;;;;6249888;23;20311;-84
2023/03/27 03:40:27;;;;;;;22.92;6.57;;;1.70;99.90;;;;;;6249957;23;20024;-83
2023/03/27 03:43:14;;;;;;;17.70;5.32;;;1.60;99.90;;;;;;6251821;23;20035;-85
2023/03/27 03:46:02;;;;;;;22.50;5.28;;;1.50;99.90;;;;;;6248434;23;20028;-84
2023/03/27 03:48:49;;;;;;;21.10;5.10;;;1.50;99.90;;;;;;6248201;23;20392;-85
2023/03/27 03:51:36;;;;;;;19.00;5.25;;;1.50;99.90;;;;;;6249277;23;20031;-86
2023/03/27 03:54:23;;;;;;;14.07;4.82;;;1.40;99.90;;;;;;6247239;23;20054;-83
2023/03/27 03:57:10;;;;;;;16.83;4.93;;;1.40;1.00;;;;;;6247724;23;20143;-84
2023/03/27 04:00:02;;;;;;;20.70;3.55;;;1.40;99.90;;;;;;6245110;23;20024;-85
2023/03/27 04:02:53;;;;;;;9.57;3.50;;;1.40;1.00;;;;;;6246417;23;20028;-84
2023/03/27 04:05:44;;;;;;;22.10;4.93;;;1.30;1.00;;;;;;6254428;23;20024;-83
2023/03/27 04:08:34;;;;;;;23.17;4.25;;;1.30;97.90;;;;;;6248938;23;20430;-83
2023/03/27 04:11:29;;;;;;;12.57;4.32;;;1.30;1.00;;;;;;6246084;23;20028;-85
2023/03/27 04:14:22;;;;;;;20.05;4.20;;;1.20;93.20;;;;;;6224574;23;20043;-86
2023/03/27 04:17:10;;;;;;;22.05;4.03;;;1.30;99.90;;;;;;6245095;23;20027;-84
2023/03/27 04:19:57;;;;;;;15.63;3.75;;;1.30;99.90;;;;;;6247018;23;20024;-84
2023/03/27 04:22:49;;;;;;;16.95;3.70;;;1.20;1.00;;;;;;6247995;23;20110;-84
2023/03/27 04:25:42;;;;;;;14.27;4.45;;;1.20;99.90;;;;;;6227564;23;20082;-84
2023/03/27 04:28:33;;;;;;;20.10;4.05;;;1.20;99.90;;;;;;6247338;23;20115;-84
2023/03/27 04:31:20;;;;;;;18.67;4.28;;;1.20;1.00;;;;;;6227099;23;20028;-85
2023/03/27 04:34:19;;;;;;;19.67;4.47;;;1.10;74.40;;;;;;6246700;23;20030;-85
2023/03/27 04:37:06;;;;;;;18.40;4.25;;;1.20;99.90;;;;;;6247181;23;20032;-83
2023/03/27 04:39:53;;;;;;;24.50;4.60;;;1.10;99.90;;;;;;6247680;23;20028;-86
2023/03/27 04:42:43;;;;;;;17.80;4.50;;;1.10;99.90;;;;;;6243594;23;20131;-81
2023/03/27 04:45:31;;;;;;;25.90;4.43;;;1.10;99.90;;;;;;6245001;23;20482;-82
2023/03/27 04:48:20;;;;;;;17.08;5.18;;;1.00;99.90;;;;;;6245777;23;20338;-81
2023/03/27 04:51:31;;;;;;;21.35;4.90;;;0.80;99.90;;;;;;6246294;23;20318;-82
2023/03/27 04:54:21;;;;;;;14.05;4.75;;;0.80;99.90;;;;;;6245907;23;20103;-83
2023/03/27 04:57:11;;;;;;;16.33;4.10;;;0.70;99.90;;;;;;6245780;23;20088;-83
2023/03/27 05:00:22;;;;;;;22.08;4.30;;;0.60;1.00;;;;;;6245378;23;20133;-81
2023/03/27 05:03:09;;;;;;;21.58;4.45;;;0.50;99.90;;;;;;6223512;23;20024;-83
2023/03/27 05:05:57;;;;;;;17.65;3.95;;;0.50;1.00;;;;;;6245077;23;20050;-83
2023/03/27 05:08:46;;;;;;;14.57;4.40;;;0.40;1.00;;;;;;6246809;23;20043;-83
2023/03/27 05:11:48;;;;;;;16.30;4.60;;;0.30;99.90;;;;;;6245268;23;20335;-82
2023/03/27 05:14:39;;;;;;;21.45;5.25;;;0.20;1.00;;;;;;6244884;23;20059;-82
2023/03/27 05:17:26;;;;;;;25.35;4.82;;;0.20;99.90;;;;;;6244194;23;20039;-81
2023/03/27 05:20:18;;;;;;;21.27;4.55;;;0.20;99.90;;;;;;6246167;23;20125;-83
2023/03/27 05:23:13;;;;;;;23.02;4.38;;;0.20;99.90;;;;;;6245156;23;20024;-84
2023/03/27 05:26:06;;;;;;;18.42;4.10;;;0.20;99.90;;;;;;6244845;23;20028;-85
2023/03/27 05:29:04;;;;;;;24.35;4.72;;;0.20;99.90;;;;;;6244901;23;20020;-87
2023/03/27 05:31:58;;;;;;;15.82;4.25;;;0.20;99.90;;;;;;6228760;23;20129;-92
2023/03/27 05:34:55;;;;;;;30.35;4.57;;;0.20;99.90;;;;;;6227918;23;20019;-89
2023/03/27 05:37:55;;;;;;;18.63;4.55;;;0.20;99.90;;;;;;6248452;23;20083;-89
2023/03/27 05:40:42;;;;;;;25.90;4.93;;;0.30;99.90;;;;;;6246253;23;20032;-87
2023/03/27 05:43:32;;;;;;;19.80;4.57;;;0.30;99.90;;;;;;6249129;23;20020;-90
2023/03/27 05:46:22;;;;;;;25.35;4.68;;;0.30;99.90;;;;;;6245012;23;20031;-84
2023/03/27 05:49:14;;;;;;;27.20;4.85;;;0.30;79.00;;;;;;6247320;23;20047;-84
2023/03/27 05:52:02;;;;;;;24.08;4.40;;;0.30;99.90;;;;;;6245487;23;20036;-86
2023/03/27 05:54:58;;;;;;;19.80;4.70;;;0.40;1.00;;;;;;6244622;23;20034;-84
2023/03/27 05:57:50;;;;;;;15.25;4.15;;;0.40;1.00;;;;;;6223393;23;20300;-86
2023/03/27 06:01:22;;;;;;;22.27;4.68;;;0.40;1.00;;;;;;6241505;23;20095;-84
2023/03/27 06:04:41;;;;;;;24.20;3.80;;;0.40;1.00;;;;;;6225675;23;20109;-84
2023/03/27 06:07:30;;;;;;;18.95;3.45;;;0.40;99.90;;;;;;6244860;23;20098;-88
2023/03/27 06:10:21;;;;;;;;;;;0.50;99.90;;;;;;6247667;23;20028;-80
2023/03/27 06:13:19;;;;;;;15.85;3.95;;;0.50;1.00;;;;;;6245391;23;19915;-83
2023/03/27 06:16:26;;;;;;;28.33;4.03;;;0.60;99.90;;;;;;6230312;23;20020;-84
2023/03/27 06:19:23;;;;;;;17.92;4.13;;;0.60;99.90;;;;;;6226781;23;20017;-85
2023/03/27 06:22:13;;;;;;;19.42;4.53;;;0.60;99.90;;;;;;6246379;23;20024;-85
2023/03/27 06:25:04;;;;;;;17.35;4.28;;;0.70;99.90;;;;;;6245102;23;20039;-82
2023/03/27 06:28:08;;;;;;;17.08;3.63;;;0.70;99.90;;;;;;6224856;23;20024;-86
2023/03/27 06:31:18;;;;;;;13.50;3.70;;;0.80;1.00;;;;;;6223844;23;20146;-86
2023/03/27 06:39:05;;;;;;;18.35;3.45;;;0.80;99.90;;;;;;6126894;23;20382;-84
2023/03/27 06:51:21;;;;;;;;;;;;;;;;;;;;;
2023/03/27 06:54:51;;;;;;;21.63;3.25;;;1.10;51.50;;;;;;6110100;23;20030;-86
2023/03/27 07:04:22;;;;;;;;;;;;;;;;;;;;;
2023/03/27 07:08:09;;;;;;;;;;;;;;;;;;;;;
2023/03/27 07:11:30;;;;;;;;;;;;;;;;;;;;;
2023/03/27 07:23:11;;;;;;;20.20;3.83;;;1.90;59.70;;;;;;6068719;23;20110;-85
2023/03/27 07:26:34;;;;;;;19.73;3.08;;;1.80;1.00;;;;;;6045898;23;20122;-85
2023/03/27 07:37:47;;;;;;;23.45;3.58;;;2.20;1.00;;;;;;6108519;23;20017;-84
2023/03/27 07:41:22;;;;;;;;;;;;;;;;;;;;;
2023/03/27 07:48:45;;;;;;;;;;;;;;;;;;;;;
2023/03/27 08:10:06;;;;;;;7.38;2.17;;;3.50;1.00;;;;;;6246531;22;20032;-85
2023/03/27 08:13:17;;;;;;;11.13;3.42;;;3.30;1.00;;;;;;6223400;23;20375;-90
2023/03/27 08:17:24;;;;;;;6.22;2.55;;;3.40;1.00;;;;;;6138816;23;20286;-91
2023/03/27 08:21:11;;;;;;;;;;;;;;;;;;;;;
2023/03/27 08:24:23;;;;;;;13.35;2.60;;;4.60;1.00;;;;;;6010033;23;19918;-87
2023/03/27 08:27:46;;;;;;;12.40;2.22;;;4.90;99.90;;;;;;6004106;23;20043;-87
2023/03/27 08:30:54;;;;;;;13.77;2.97;;;5.00;99.90;;;;;;5993400;23;20163;-83
2023/03/27 08:34:21;;;;;;;;;;;;;;;;;;;;;
2023/03/27 08:37:13;;;;;;;9.45;2.25;;;5.80;99.90;;;;;;6010680;23;20335;-86
2023/03/27 08:40:32;;;;;;;6.50;2.40;;;6.20;99.90;;;;;;6011696;23;20103;-86
2023/03/27 08:44:15;;;;;;;10.02;1.90;;;6.90;99.90;;;;;;5997008;23;20439;-88
2023/03/27 08:47:52;;;;;;;10.32;2.67;;;7.30;99.90;;;;;;5961021;24;20032;-88
2023/03/27 08:51:17;;;;;;;9.65;2.28;;;7.60;99.90;;;;;;5982869;24;20021;-88
2023/03/27 08:55:25;;;;;;;5.32;1.70;;;8.30;99.90;;;;;;5954956;24;20028;-90
2023/03/27 08:58:26;;;;;;;7.35;1.90;;;9.00;99.90;;;;;;6006763;23;20075;-88
2023/03/27 09:01:48;;;;;;;12.57;3.05;;;9.60;99.90;;;;;;6096934;23;20445;-88
2023/03/27 09:05:10;;;;;;;9.98;2.30;;;10.20;99.90;;;;;;6083465;23;20078;-92
2023/03/27 09:08:24;;;;;;;7.93;1.95;;;10.40;99.90;;;;;;6096985;23;20430;-88
2023/03/27 09:21:02;;;;;;;11.45;1.80;;;10.90;99.90;;;;;;6086013;23;20034;-90
2023/03/27 09:24:10;;;;;;;8.57;2.00;;;11.10;94.30;;;;;;6111704;23;20086;-86
2023/03/27 09:27:19;;;;;;;7.43;2.17;;;12.00;92.80;;;;;;6100116;23;20033;-86
2023/03/27 09:30:27;;;;;;;;;;;;;;;;;;;;;
2023/03/27 09:33:27;;;;;;;7.53;1.73;;;11.20;79.20;;;;;;6162532;23;20031;-86
2023/03/27 09:36:23;;;;;;;9.32;2.15;;;11.90;74.10;;;;;;6244671;23;20024;-84
2023/03/27 09:39:21;;;;;;;9.77;1.90;;;12.40;72.20;;;;;;6247790;23;20307;-86
2023/03/27 09:42:20;;;;;;;7.85;2.03;;;12.10;44.80;;;;;;6247368;23;20030;-84
2023/03/27 09:45:11;;;;;;;7.03;1.85;;;11.60;48.40;;;;;;6226434;23;20477;-86
2023/03/27 09:48:03;;;;;;;4.73;1.63;;;12.30;43.50;;;;;;6246318;23;20082;-90
2023/03/27 09:51:35;;;;;;;;;;;;;;;;;;;;;
2023/03/27 09:55:19;;;;;;;14.00;2.60;;;11.60;36.60;;;;;;6249100;23;20431;-91
2023/03/27 09:58:55;;;;;;;;;;;;;;;;;;;;;
2023/03/27 10:02:44;;;;;;;6.18;2.00;;;12.90;30.80;;;;;;6243502;23;20047;-91
2023/03/27 10:10:25;;;;;;;6.00;1.73;;;14.00;20.70;;;;;;6212805;23;20016;-89
2023/03/27 10:13:39;;;;;;;4.32;1.50;;;13.10;7.10;;;;;;6215393;23;20032;-86
2023/03/27 10:17:09;;;;;;;6.35;1.52;;;13.40;3.50;;;;;;6214873;23;20122;-86
2023/03/27 10:20:54;;;;;;;9.15;1.77;;;13.80;6.40;;;;;;6255196;23;20421;-89
2023/03/27 10:24:12;;;;;;;;;;;;;;;;;;;;;
2023/03/27 10:27:56;;;;;;;6.70;1.48;;;12.30;1.00;;;;;;6262877;22;20031;-89
2023/03/27 10:31:42;;;;;;;10.02;1.80;;;10.90;1.00;;;;;;6270774;22;20143;-86
2023/03/27 10:34:54;;;;;;;12.57;1.90;;;11.20;1.00;;;;;;6236784;22;20321;-85
2023/03/27 10:37:49;;;;;;;11.13;2.05;;;12.30;1.00;;;;;;6268692;22;20016;-85
2023/03/27 10:40:55;;;;;;;4.07;1.70;;;13.40;1.00;;;;;;6256322;23;20074;-86
2023/03/27 10:44:46;;;;;;;;;;;;;;;;;;;;;
2023/03/27 10:48:14;;;;;;;7.78;1.95;;;9.20;1.00;;;;;;6157972;23;20037;-86
2023/03/27 10:52:08;;;;;;;;;;;;;;;;;;;;;
2023/03/27 11:58:55;;;;;;;4.68;1.67;;;16.10;1.00;;;;;;6097618;23;20030;-87
2023/03/27 12:18:53;;;;;;;;;;;;;;;;;;;;;
2023/03/27 12:47:45;;;;;;;4.72;1.58;;;10.80;1.00;;;;;;6024101;23;20128;-89
2023/03/27 12:55:29;;;;;;;;;;;;;;;;;;;;;
2023/03/27 14:24:48;;;;;;;6.93;2.92;;;4.60;99.90;;;;;;6219581;22;20056;-83
2023/03/27 14:27:41;;;;;;;10.05;3.22;;;4.10;99.90;;;;;;6200182;23;20099;-83
2023/03/27 14:30:48;;;;;;;11.40;3.90;;;4.10;1.00;;;;;;6203199;23;20043;-84
2023/03/27 14:34:01;;;;;;;9.35;3.40;;;4.30;25.00;;;;;;6203869;23;20024;-85
2023/03/27 14:36:55;;;;;;;9.88;2.90;;;5.20;99.90;;;;;;6201308;23;20395;-86
2023/03/27 14:39:53;;;;;;;13.32;3.47;;;5.70;1.60;;;;;;6223859;23;20104;-85
2023/03/27 14:42:50;;;;;;;6.45;2.90;;;5.70;1.00;;;;;;6200731;23;20024;-85
2023/03/27 14:45:46;;;;;;;5.85;3.03;;;5.80;1.00;;;;;;6225056;23;20031;-85
2023/03/27 14:48:44;;;;;;;10.70;2.97;;;6.00;1.00;;;;;;6222758;23;20035;-85
2023/03/27 14:51:46;;;;;;;7.22;2.83;;;6.30;1.00;;;;;;6224096;23;20040;-82
2023/03/27 14:54:55;;;;;;;9.10;3.30;;;6.40;1.00;;;;;;6198365;23;20094;-87
2023/03/27 14:57:50;;;;;;;10.55;3.42;;;6.70;1.00;;;;;;6192912;23;20099;-85
2023/03/27 15:00:41;;;;;;;7.05;2.15;;;7.50;1.00;;;;;;6194403;23;20036;-84
2023/03/27 15:03:33;;;;;;;8.15;2.33;;;8.10;99.90;;;;;;6194709;23;20407;-83
2023/03/27 15:06:25;;;;;;;8.60;2.63;;;7.70;99.90;;;;;;6217140;23;20110;-85
2023/03/27 15:09:18;;;;;;;7.43;2.65;;;7.70;99.90;;;;;;6218024;23;20654;-83
2023/03/27 15:12:12;;;;;;;7.18;2.67;;;8.30;99.90;;;;;;6215120;23;20363;-87
2023/03/27 15:15:01;;;;;;;7.60;2.30;;;8.70;99.90;;;;;;6199555;23;20031;-85
2023/03/27 15:17:53;;;;;;;8.43;2.15;;;9.90;99.90;;;;;;6196138;23;20016;-87
2023/03/27 15:20:49;;;;;;;6.38;3.13;;;11.30;99.90;;;;;;6192571;23;20024;-86
2023/03/27 15:23:57;;;;;;;4.95;1.85;;;12.50;99.90;;;;;;6175623;23;20082;-86
2023/03/27 15:26:54;;;;;;;4.07;1.23;;;11.80;88.20;;;;;;6191964;23;20024;-86
2023/03/27 15:29:48;;;;;;;9.00;2.20;;;12.30;50.90;;;;;;6193832;23;20789;-86
2023/03/27 15:33:00;;;;;;;8.25;1.75;;;11.80;33.60;;;;;;6192052;23;20039;-85
2023/03/27 15:35:57;;;;;;;3.17;1.73;;;10.20;12.90;;;;;;6215702;23;20024;-84
2023/03/27 15:38:54;;;;;;;6.28;1.85;;;8.50;12.30;;;;;;6216666;23;20024;-85
2023/03/27 15:41:42;;;;;;;3.50;1.77;;;7.20;15.60;;;;;;6213459;23;20071;-85
2023/03/27 15:44:32;;;;;;;5.57;2.03;;;6.80;17.80;;;;;;6215751;23;20159;-85
2023/03/27 15:47:25;;;;;;;6.00;1.90;;;6.70;24.00;;;;;;6216352;23;20034;-86
2023/03/27 15:50:16;;;;;;;4.38;2.30;;;6.40;23.50;;;;;;6172848;23;20025;-85
2023/03/27 15:53:05;;;;;;;2.97;1.63;;;6.30;23.20;;;;;;6193279;23;20277;-84
2023/03/27 15:55:56;;;;;;;6.68;2.53;;;6.20;31.60;;;;;;6215684;23;20046;-86
2023/03/27 15:59:00;;;;;;;5.47;1.98;;;6.10;31.30;;;;;;6193265;23;20048;-84
2023/03/27 16:01:53;;;;;;;10.82;2.33;;;5.70;41.90;;;;;;6216667;23;20135;-86
2023/03/27 16:04:45;;;;;;;3.50;1.90;;;5.30;49.90;;;;;;6193989;23;20028;-84
2023/03/27 16:07:41;;;;;;;6.25;2.13;;;4.70;93.00;;;;;;6192933;23;20336;-83
2023/03/27 16:10:31;;;;;;;6.32;2.50;;;4.30;99.90;;;;;;6216601;23;20028;-85
2023/03/27 16:13:27;;;;;;;6.43;2.78;;;4.00;99.90;;;;;;6217553;23;20024;-84
2023/03/27 16:16:24;;;;;;;6.30;2.42;;;3.60;99.90;;;;;;6218430;23;20023;-87
2023/03/27 16:19:14;;;;;;;8.95;2.72;;;3.40;1.00;;;;;;6224324;23;20072;-85
2023/03/27 16:22:05;;;;;;;8.52;4.13;;;3.40;99.90;;;;;;6198652;23;20052;-84
2023/03/27 16:24:54;;;;;;;7.68;4.65;;;3.50;1.00;;;;;;6217303;23;20028;-86
2023/03/27 16:28:16;;;;;;;7.13;3.28;;;3.40;99.90;;;;;;6220797;23;20039;-82
2023/03/27 16:31:19;;;;;;;4.05;3.17;;;3.20;99.90;;;;;;6220382;23;20111;-86
2023/03/27 16:34:35;;;;;;;7.95;3.15;;;3.60;99.90;;;;;;6210994;23;20043;-92
2023/03/27 16:37:27;;;;;;;5.32;3.22;;;3.50;1.00;;;;;;6232122;23;20021;-88
2023/03/27 16:40:20;;;;;;;4.63;2.70;;;3.30;1.00;;;;;;6196629;23;20028;-86
2023/03/27 16:43:10;;;;;;;4.43;2.97;;;3.10;99.90;;;;;;6174788;23;20039;-89
2023/03/27 16:45:58;;;;;;;7.32;3.70;;;3.00;99.90;;;;;;6195252;23;20120;-89
2023/03/27 16:48:50;;;;;;;5.65;3.35;;;2.80;1.00;;;;;;6204372;23;20035;-91
2023/03/27 16:51:42;;;;;;;5.03;2.90;;;2.70;99.90;;;;;;6206092;23;20028;-90
2023/03/27 16:54:35;;;;;;;6.80;3.47;;;2.80;1.00;;;;;;6224923;23;20100;-87
2023/03/27 16:57:24;;;;;;;7.32;3.25;;;2.80;99.90;;;;;;6228229;23;20088;-89
2023/03/27 17:00:14;;;;;;;6.25;3.20;;;2.60;99.90;;;;;;6203343;23;20024;-91
2023/03/27 17:03:10;;;;;;;7.63;3.35;;;2.60;99.90;;;;;;6205119;23;20115;-89
2023/03/27 17:06:11;;;;;;;;;;;;;;;;;;;;;
2023/03/27 17:09:12;;;;;;;6.85;3.38;;;2.50;99.90;;;;;;6208132;23;20031;-88
2023/03/27 17:12:26;;;;;;;6.75;3.97;;;2.40;1.00;;;;;;6202779;23;20104;-86
2023/03/27 17:15:15;;;;;;;10.90;4.60;;;2.40;99.90;;;;;;6222356;23;20035;-87
2023/03/27 17:18:12;;;;;;;8.38;4.40;;;2.40;1.00;;;;;;6182759;23;20030;-86
2023/03/27 17:21:00;;;;;;;9.68;6.03;;;2.40;99.90;;;;;;6211923;23;20080;-86
2023/03/27 17:23:48;;;;;;;13.25;5.82;;;2.40;99.90;;;;;;6188852;23;20029;-87
2023/03/27 17:26:37;;;;;;;9.82;5.70;;;2.30;21.00;;;;;;6210556;23;20016;-86
2023/03/27 17:29:27;;;;;;;6.85;4.95;;;2.20;1.00;;;;;;6234221;23;20071;-89
2023/03/27 17:32:17;;;;;;;9.50;5.55;;;2.10;99.90;;;;;;6237858;23;20012;-86
2023/03/27 17:35:05;;;;;;;19.48;8.93;;;2.10;99.90;;;;;;6219951;23;20021;-85
2023/03/27 17:37:52;;;;;;;17.42;9.52;;;1.90;52.90;;;;;;6219070;23;20024;-87
2023/03/27 17:40:41;;;;;;;15.27;6.72;;;2.00;93.40;;;;;;6213848;23;20036;-87
2023/03/27 17:43:30;;;;;;;19.50;10.52;;;1.90;99.90;;;;;;6212293;23;20051;-89
2023/03/27 17:46:20;;;;;;;17.85;11.15;;;1.80;99.90;;;;;;6217334;23;20020;-88
2023/03/27 17:49:08;;;;;;;17.80;8.07;;;1.80;1.00;;;;;;6234460;23;20046;-89
2023/03/27 17:51:57;;;;;;;16.05;8.10;;;1.80;1.00;;;;;;6229472;23;20029;-88
2023/03/27 17:54:50;;;;;;;12.70;8.05;;;1.90;1.00;;;;;;6224222;23;20033;-91
2023/03/27 17:57:43;;;;;;;15.70;9.18;;;1.80;1.00;;;;;;6228066;23;20411;-87
2023/03/27 18:00:42;;;;;;;18.52;9.10;;;1.70;1.00;;;;;;6203673;23;20025;-89
2023/03/27 18:03:29;;;;;;;18.75;10.93;;;1.60;1.00;;;;;;6197914;23;20046;-89
2023/03/27 18:06:19;;;;;;;23.77;12.48;;;1.60;1.00;;;;;;6195924;23;20043;-90
2023/03/27 18:09:18;;;;;;;21.92;13.18;;;1.70;1.00;;;;;;6217275;23;20035;-88
2023/03/27 18:12:09;;;;;;;24.95;13.43;;;1.70;1.00;;;;;;6196977;23;20036;-91
2023/03/27 18:15:00;;;;;;;21.50;11.45;;;1.70;1.00;;;;;;6197799;23;20020;-90
2023/03/27 18:17:52;;;;;;;19.15;11.18;;;1.60;1.00;;;;;;6220146;23;20058;-91
2023/03/27 18:20:41;;;;;;;18.83;11.38;;;1.60;1.00;;;;;;6217053;23;20021;-90
2023/03/27 18:23:33;;;;;;;23.00;12.10;;;1.60;1.00;;;;;;6218691;23;20420;-89
2023/03/27 18:26:34;;;;;;;21.50;12.82;;;1.50;99.90;;;;;;6198248;23;20349;-90
2023/03/27 18:29:23;;;;;;;20.98;12.10;;;1.40;99.90;;;;;;6196536;23;20526;-91
2023/03/27 18:32:26;;;;;;;17.98;10.52;;;1.30;1.00;;;;;;6219568;23;20404;-90
2023/03/27 18:35:16;;;;;;;16.95;8.68;;;1.40;1.00;;;;;;6217563;23;20038;-90
2023/03/27 18:38:05;;;;;;;19.77;9.65;;;1.40;99.90;;;;;;6195798;23;20514;-88
2023/03/27 18:40:56;;;;;;;16.00;9.23;;;1.40;99.90;;;;;;6195564;23;20088;-89
2023/03/27 18:43:44;;;;;;;14.50;8.57;;;1.50;1.00;;;;;;6219997;23;20427;-88
2023/03/27 18:46:32;;;;;;;14.00;7.78;;;1.50;99.90;;;;;;6198886;23;20319;-90
2023/03/27 18:49:22;;;;;;;9.00;6.03;;;1.50;1.00;;;;;;6197828;23;20107;-91
2023/03/27 18:52:15;;;;;;;12.05;6.75;;;1.50;99.90;;;;;;6200353;23;20021;-92
2023/03/27 18:55:20;;;;;;;8.85;5.07;;;1.40;1.00;;;;;;6180859;23;20021;-90
2023/03/27 18:58:10;;;;;;;9.85;5.05;;;1.40;99.90;;;;;;6213284;23;20024;-88
2023/03/27 19:00:58;;;;;;;8.65;4.50;;;1.40;99.90;;;;;;6209931;23;20473;-90
2023/03/27 19:04:04;;;;;;;10.65;6.80;;;1.40;1.00;;;;;;6217785;23;20016;-88
2023/03/27 19:07:01;;;;;;;10.60;6.25;;;1.40;99.90;;;;;;6219318;23;20062;-90
2023/03/27 19:09:56;;;;;;;8.00;4.15;;;1.50;99.90;;;;;;6219043;23;20028;-90
2023/03/27 19:12:48;;;;;;;9.07;4.10;;;1.50;1.00;;;;;;6215611;23;20043;-92
2023/03/27 19:15:51;;;;;;;8.30;4.35;;;1.50;99.90;;;;;;6238676;23;20020;-90
2023/03/27 19:19:01;;;;;;;18.85;3.85;;;1.50;99.90;;;;;;6220073;23;20021;-91
2023/03/27 19:21:50;;;;;;;3.83;3.42;;;1.50;99.90;;;;;;6216057;23;20029;-92
2023/03/27 19:24:42;;;;;;;4.38;2.90;;;1.50;99.90;;;;;;6205833;23;20721;-91
2023/03/27 19:27:30;;;;;;;5.45;3.28;;;1.40;99.90;;;;;;6219943;23;20024;-92
2023/03/27 19:30:25;;;;;;;5.13;3.15;;;1.40;76.90;;;;;;6207764;23;20025;-91
2023/03/27 19:33:12;;;;;;;5.65;3.53;;;1.40;1.00;;;;;;6225224;23;20035;-90
2023/03/27 19:36:01;;;;;;;4.70;3.55;;;1.40;1.00;;;;;;6222297;23;20055;-91
2023/03/27 19:39:09;;;;;;;4.88;3.63;;;1.50;99.90;;;;;;6125665;23;20045;-90
2023/03/27 19:42:28;;;;;;;6.03;3.90;;;1.60;99.90;;;;;;6143985;23;20033;-90
2023/03/27 19:45:50;;;;;;;5.82;3.65;;;1.60;10.60;;;;;;6107795;23;20058;-90
2023/03/27 19:48:48;;;;;;;6.57;4.07;;;1.70;1.00;;;;;;6121736;23;20113;-89
2023/03/27 19:51:36;;;;;;;7.90;4.50;;;1.80;1.00;;;;;;6149394;23;20014;-85
2023/03/27 19:54:26;;;;;;;10.70;5.20;;;1.80;1.00;;;;;;6151331;23;20085;-85
2023/03/27 19:57:17;;;;;;;;;;;1.80;99.90;;;;;;6239900;23;20021;-92
2023/03/27 20:00:11;;;;;;;7.38;3.80;;;1.80;99.90;;;;;;6220103;23;19911;-92
2023/03/27 20:03:01;;;;;;;6.93;4.35;;;1.80;99.90;;;;;;6219036;23;20047;-91
2023/03/27 20:05:51;;;;;;;8.60;4.05;;;1.70;99.90;;;;;;6216172;23;20028;-89
2023/03/27 20:08:56;;;;;;;6.35;4.47;;;1.70;99.90;;;;;;6200546;23;20031;-90
2023/03/27 20:11:45;;;;;;;7.63;4.50;;;1.80;99.90;;;;;;6210737;23;20103;-92
2023/03/27 20:14:38;;;;;;;11.02;4.43;;;1.70;99.90;;;;;;6188472;23;20021;-92
2023/03/27 20:17:55;;;;;;;8.77;4.70;;;1.70;99.90;;;;;;6207933;23;20040;-91
2023/03/27 20:20:45;;;;;;;12.85;5.43;;;1.60;99.90;;;;;;6222057;23;20082;-89
2023/03/27 20:23:32;;;;;;;11.98;5.78;;;1.60;99.90;;;;;;6198029;23;20031;-87
2023/03/27 20:26:23;;;;;;;9.68;5.90;;;1.60;99.90;;;;;;6195430;23;20029;-88
2023/03/27 20:29:21;;;;;;;6.75;4.03;;;1.40;99.90;;;;;;6196644;23;20151;-88
2023/03/27 20:32:09;;;;;;;6.10;3.97;;;1.30;99.90;;;;;;6194036;23;20040;-89
2023/03/27 20:35:03;;;;;;;4.72;3.78;;;1.20;99.90;;;;;;6196296;23;20097;-88
2023/03/27 20:38:13;;;;;;;7.97;3.63;;;1.00;1.00;;;;;;6199797;23;20333;-89